Time;durP1;ratioP1;P1;durP2;ratioP2;P2;SDS_P1;SDS_P2;PMS_P1;PMS_P2;Temp;Humidity;BMP_temperature;BMP_pressure;BME280_temperature;BME280_humidity;BME280_pressure;Samples;Min_cycle;Max_cycle;Signal;HPM_P1;HPM_P2
2023/10/17 00:02:50;;;;;;;5.18;3.63;;;7.90;99.90;;;;;;4999563;28;89274;-34
2023/10/17 00:05:15;;;;;;;5.50;4.30;;;7.90;99.90;;;;;;5011990;28;90366;-34
2023/10/17 00:07:45;;;;;;;7.05;3.95;;;7.80;99.90;;;;;;4998635;28;90160;-33
2023/10/17 00:10:18;;;;;;;4.45;4.05;;;7.90;99.90;;;;;;5013582;28;89634;-32
2023/10/17 00:12:51;;;;;;;4.80;4.28;;;7.80;99.90;;;;;;5009230;28;90474;-31
2023/10/17 00:15:27;;;;;;;8.98;4.22;;;7.80;99.90;;;;;;4997210;28;89754;-33
2023/10/17 00:17:56;;;;;;;5.22;4.10;;;7.80;99.90;;;;;;5018025;28;88642;-32
2023/10/17 00:20:32;;;;;;;8.32;3.85;;;7.80;99.90;;;;;;5018124;28;90379;-32
2023/10/17 00:22:58;;;;;;;5.60;3.92;;;7.80;99.90;;;;;;5017616;28;89619;-33
2023/10/17 00:25:25;;;;;;;8.75;6.03;;;7.80;99.90;;;;;;5019236;28;90216;-31
2023/10/17 00:27:51;;;;;;;13.05;4.95;;;7.80;99.90;;;;;;5016019;28;89798;-35
2023/10/17 00:30:17;;;;;;;5.75;3.35;;;7.80;99.90;;;;;;5014949;28;89154;-33
2023/10/17 00:32:43;;;;;;;5.32;4.70;;;7.80;99.90;;;;;;5018434;28;89087;-32
2023/10/17 00:35:18;;;;;;;7.63;5.78;;;7.90;99.90;;;;;;5017493;28;89730;-34
2023/10/17 00:38:45;;;;;;;6.25;4.95;;;7.80;99.90;;;;;;5018733;28;89203;-33
2023/10/17 00:40:45;;;;;;;7.93;5.63;;;7.80;99.90;;;;;;4990009;28;89623;-31
2023/10/17 00:43:14;;;;;;;9.73;5.25;;;7.80;99.90;;;;;;5017688;28;88436;-31
2023/10/17 00:45:41;;;;;;;8.95;6.55;;;7.80;99.90;;;;;;5018250;28;90401;-33
2023/10/17 00:48:18;;;;;;;9.00;5.20;;;7.90;99.90;;;;;;5016172;28;90966;-32
2023/10/17 00:50:46;;;;;;;5.78;4.60;;;7.80;99.90;;;;;;5011482;28;89026;-33
2023/10/17 00:53:12;;;;;;;8.63;7.85;;;7.90;99.90;;;;;;5018444;28;88887;-33
2023/10/17 00:55:38;;;;;;;8.85;5.47;;;7.80;99.90;;;;;;5017327;28;90527;-32
2023/10/17 00:58:06;;;;;;;8.60;4.60;;;7.90;99.90;;;;;;5017715;28;89745;-31
2023/10/17 01:00:49;;;;;;;;;;;7.80;99.90;;;;;;5017310;28;89235;-34
2023/10/17 01:03:16;;;;;;;5.78;4.40;;;7.80;99.90;;;;;;5018995;28;87942;-33
2023/10/17 01:05:48;;;;;;;6.47;4.82;;;7.70;99.90;;;;;;5017074;28;89519;-33
2023/10/17 01:08:15;;;;;;;6.75;5.43;;;7.70;99.90;;;;;;5018958;27;89568;-32
2023/10/17 01:10:41;;;;;;;6.47;4.43;;;7.60;99.90;;;;;;4998786;28;89162;-31
2023/10/17 01:13:07;;;;;;;5.22;4.38;;;7.60;99.90;;;;;;5015144;28;89451;-32
2023/10/17 01:15:33;;;;;;;10.23;5.25;;;7.60;99.90;;;;;;5019809;28;91500;-34
2023/10/17 01:18:04;;;;;;;5.30;4.32;;;7.50;99.90;;;;;;5020754;28;89991;-33
2023/10/17 01:20:30;;;;;;;4.78;4.03;;;7.50;99.90;;;;;;5020147;28;89934;-31
2023/10/17 01:22:56;;;;;;;4.35;3.90;;;7.50;99.90;;;;;;5020793;28;87911;-32
2023/10/17 01:25:25;;;;;;;4.20;3.60;;;7.50;99.90;;;;;;5002772;28;90423;-30
2023/10/17 01:27:54;;;;;;;4.75;3.85;;;7.50;99.90;;;;;;5002048;28;89683;-32
2023/10/17 01:30:22;;;;;;;8.60;4.32;;;7.50;99.90;;;;;;5020173;28;88116;-33
2023/10/17 01:32:51;;;;;;;6.97;6.23;;;7.50;99.90;;;;;;5020132;28;89163;-35
2023/10/17 01:35:19;;;;;;;6.00;5.18;;;7.50;99.90;;;;;;5020374;28;90449;-32
2023/10/17 01:37:46;;;;;;;7.97;6.18;;;7.70;99.90;;;;;;5019633;28;91146;-33
2023/10/17 01:40:22;;;;;;;5.30;4.57;;;7.60;99.90;;;;;;5021005;28;89256;-33
2023/10/17 01:42:49;;;;;;;4.95;4.35;;;7.50;99.90;;;;;;5019853;28;88793;-34
2023/10/17 01:45:15;;;;;;;7.30;5.50;;;7.50;99.90;;;;;;5020338;28;90889;-34
2023/10/17 01:47:41;;;;;;;6.32;4.93;;;7.40;99.90;;;;;;5019176;28;89671;-31
2023/10/17 01:50:10;;;;;;;7.05;5.35;;;7.40;99.90;;;;;;5001698;28;89733;-31
2023/10/17 01:52:37;;;;;;;5.50;4.68;;;7.30;99.90;;;;;;5001586;28;89810;-33
2023/10/17 01:55:10;;;;;;;4.97;4.57;;;7.40;99.90;;;;;;5020781;28;90506;-31
2023/10/17 01:57:40;;;;;;;4.32;4.00;;;7.40;99.90;;;;;;4995648;28;89826;-33
2023/10/17 02:00:16;;;;;;;6.70;4.97;;;7.40;99.90;;;;;;5019725;28;90353;-32
2023/10/17 02:02:42;;;;;;;7.30;6.53;;;7.50;99.90;;;;;;5019367;28;90458;-34
2023/10/17 02:05:12;;;;;;;5.57;4.78;;;7.60;99.90;;;;;;5019637;28;90695;-33
2023/10/17 02:07:38;;;;;;;6.68;6.05;;;7.40;99.90;;;;;;5020424;28;89586;-32
2023/10/17 02:10:07;;;;;;;7.32;5.82;;;7.30;99.90;;;;;;5001175;28;90182;-35
2023/10/17 02:12:33;;;;;;;10.10;5.70;;;7.30;99.90;;;;;;5019865;28;89875;-36
2023/10/17 02:15:00;;;;;;;8.73;5.60;;;7.30;99.90;;;;;;5019823;28;89776;-34
2023/10/17 02:17:26;;;;;;;8.57;5.43;;;7.30;99.90;;;;;;5020005;28;89543;-33
2023/10/17 02:19:53;;;;;;;5.03;4.63;;;7.30;99.90;;;;;;5018751;28;90195;-35
2023/10/17 02:22:19;;;;;;;6.10;4.93;;;7.30;99.90;;;;;;5020947;28;88220;-31
2023/10/17 02:24:44;;;;;;;7.70;5.13;;;7.30;99.90;;;;;;5019420;28;90740;-33
2023/10/17 02:27:12;;;;;;;5.00;4.57;;;7.40;99.90;;;;;;5019274;28;90550;-32
2023/10/17 02:29:44;;;;;;;12.65;4.57;;;7.40;99.90;;;;;;5019484;28;89864;-31
2023/10/17 02:32:13;;;;;;;5.40;4.40;;;7.30;99.90;;;;;;5019169;28;90063;-35
2023/10/17 02:34:40;;;;;;;7.55;4.97;;;7.40;99.90;;;;;;5017715;28;90597;-34
2023/10/17 02:37:10;;;;;;;5.75;4.25;;;7.40;99.90;;;;;;5019745;28;89659;-33
2023/10/17 02:39:37;;;;;;;8.73;4.05;;;7.40;99.90;;;;;;5018233;28;89661;-33
2023/10/17 02:42:07;;;;;;;11.88;3.55;;;7.40;99.90;;;;;;5018911;28;90178;-32
2023/10/17 02:44:33;;;;;;;4.90;4.35;;;7.50;99.90;;;;;;5019138;28;90360;-32
2023/10/17 02:46:58;;;;;;;5.07;4.57;;;7.40;99.90;;;;;;4984482;28;88831;-35
2023/10/17 02:49:26;;;;;;;6.18;4.93;;;7.30;99.90;;;;;;5005931;28;89717;-32
2023/10/17 02:51:54;;;;;;;8.07;5.88;;;7.30;99.90;;;;;;5005748;28;89745;-32
2023/10/17 02:54:20;;;;;;;6.70;4.67;;;7.20;99.90;;;;;;4981144;28;89809;-35
2023/10/17 02:56:46;;;;;;;4.68;3.72;;;7.20;99.90;;;;;;4999036;28;88685;-34
2023/10/17 02:59:13;;;;;;;6.25;4.97;;;7.20;99.90;;;;;;4999952;28;89611;-35
2023/10/17 03:01:52;;;;;;;4.70;4.30;;;7.20;99.90;;;;;;5007118;28;90023;-32
2023/10/17 03:04:23;;;;;;;4.85;4.07;;;7.10;99.90;;;;;;4999206;28;90274;-32
2023/10/17 03:06:54;;;;;;;4.72;3.38;;;7.20;99.90;;;;;;4998716;28;89941;-33
2023/10/17 03:12:07;;;;;;;5.22;4.30;;;7.20;99.90;;;;;;5017451;28;89008;-34
2023/10/17 03:17:12;;;;;;;6.43;4.57;;;7.30;99.90;;;;;;5018429;28;90912;-33
2023/10/17 03:19:38;;;;;;;6.65;4.15;;;7.30;99.90;;;;;;5018755;28;90526;-31
2023/10/17 03:24:51;;;;;;;6.22;4.60;;;7.30;99.90;;;;;;5018543;28;90229;-32
2023/10/17 03:27:35;;;;;;;5.68;3.83;;;7.30;99.90;;;;;;5019030;28;89441;-30
2023/10/17 03:30:08;;;;;;;7.55;6.13;;;7.30;99.90;;;;;;4998421;28;89720;-34
2023/10/17 03:32:34;;;;;;;6.43;4.30;;;7.30;99.90;;;;;;5017742;28;88136;-35
2023/10/17 03:35:02;;;;;;;8.52;4.80;;;7.30;99.90;;;;;;5018760;28;90019;-34
2023/10/17 03:37:29;;;;;;;6.70;5.25;;;7.40;99.90;;;;;;5018039;28;90181;-33
2023/10/17 03:40:15;;;;;;;4.35;3.90;;;7.30;99.90;;;;;;5019093;28;89661;-31
2023/10/17 03:42:45;;;;;;;5.47;4.22;;;7.30;99.90;;;;;;5018531;28;88318;-31
2023/10/17 03:45:17;;;;;;;3.95;3.55;;;7.30;99.90;;;;;;5001022;28;91058;-32
2023/10/17 03:47:47;;;;;;;6.05;3.88;;;7.30;99.90;;;;;;5018204;28;88217;-31
2023/10/17 03:50:31;;;;;;;7.68;4.65;;;7.30;99.90;;;;;;5019456;28;89349;-32
2023/10/17 03:53:15;;;;;;;7.05;4.18;;;7.40;99.90;;;;;;5018362;28;89006;-33
2023/10/17 03:55:43;;;;;;;5.10;3.88;;;7.20;99.90;;;;;;5017453;28;90139;-34
2023/10/17 03:59:16;;;;;;;8.00;5.18;;;7.20;99.90;;;;;;5019304;28;90555;-31
2023/10/17 04:01:00;;;;;;;6.50;4.78;;;7.10;99.90;;;;;;5007609;28;89575;-32
2023/10/17 04:03:30;;;;;;;5.53;4.53;;;7.10;99.90;;;;;;5019055;28;89362;-33
2023/10/17 04:06:41;;;;;;;4.97;4.57;;;7.10;99.90;;;;;;5018201;28;91469;-34
2023/10/17 04:08:49;;;;;;;14.00;5.32;;;6.90;99.90;;;;;;4993793;28;91849;-32
2023/10/17 04:11:18;;;;;;;7.38;5.78;;;6.90;99.90;;;;;;4994846;28;90018;-34
2023/10/17 04:13:49;;;;;;;7.28;4.82;;;6.90;99.90;;;;;;5017448;28;89142;-34
2023/10/17 04:16:33;;;;;;;5.70;4.82;;;6.90;99.90;;;;;;5017941;28;89844;-35
2023/10/17 04:19:16;;;;;;;7.40;4.50;;;6.90;99.90;;;;;;5007146;28;89453;-33
2023/10/17 04:24:33;;;;;;;26.38;6.00;;;6.90;99.90;;;;;;5018288;28;89074;-34
2023/10/17 04:27:06;;;;;;;6.57;3.78;;;6.80;99.90;;;;;;5018003;28;90223;-31
2023/10/17 04:29:33;;;;;;;6.13;4.55;;;6.80;99.90;;;;;;5005258;28;90034;-35
2023/10/17 04:32:01;;;;;;;4.60;4.25;;;6.80;99.90;;;;;;5009808;28;89359;-31
2023/10/17 04:34:29;;;;;;;4.55;3.97;;;6.80;99.90;;;;;;5014842;28;89965;-34
2023/10/17 04:36:56;;;;;;;4.45;4.05;;;6.80;99.90;;;;;;5009232;28;90284;-32
2023/10/17 04:39:48;;;;;;;5.32;4.30;;;6.80;99.90;;;;;;5001045;28;89369;-33
2023/10/17 04:42:11;;;;;;;;;;;6.80;99.90;;;;;;5014665;27;89635;-32
2023/10/17 04:44:50;;;;;;;4.07;3.50;;;6.80;99.90;;;;;;5016403;28;87509;-34
2023/10/17 04:49:42;;;;;;;5.78;3.92;;;6.90;99.90;;;;;;5003100;28;89687;-31
2023/10/17 04:52:18;;;;;;;5.13;4.00;;;6.80;99.90;;;;;;5003693;28;88512;-31
2023/10/17 04:54:44;;;;;;;4.60;4.20;;;6.90;99.90;;;;;;5012867;28;89284;-33
2023/10/17 04:57:18;;;;;;;6.78;4.65;;;6.90;99.90;;;;;;5017574;28;88843;-33
2023/10/17 05:07:52;;;;;;;6.05;3.97;;;6.80;99.90;;;;;;5002516;28;90270;-31
2023/10/17 06:18:57;;;;;;;5.45;3.63;;;6.80;99.90;;;;;;5016660;27;89096;-34
2023/10/17 06:21:36;;;;;;;5.25;3.92;;;6.80;99.90;;;;;;5018552;27;89794;-31
2023/10/17 06:24:45;;;;;;;7.53;3.85;;;6.70;99.90;;;;;;5027420;27;90874;-32
2023/10/17 06:26:59;;;;;;;8.88;4.95;;;6.80;99.90;;;;;;5023460;27;90648;-34
2023/10/17 06:34:38;;;;;;;4.43;4.03;;;6.80;99.90;;;;;;5016737;27;90289;-32
2023/10/17 06:37:07;;;;;;;5.95;4.40;;;6.80;99.90;;;;;;5017704;27;89357;-33
2023/10/17 06:39:36;;;;;;;4.80;3.70;;;6.80;99.90;;;;;;5035247;27;88433;-34
2023/10/17 06:42:15;;;;;;;5.07;4.55;;;6.80;99.90;;;;;;5037370;27;88420;-33
2023/10/17 06:44:52;;;;;;;4.93;4.25;;;6.90;99.90;;;;;;5030168;27;92326;-33
2023/10/17 06:47:31;;;;;;;4.32;3.67;;;6.90;99.90;;;;;;5015907;27;90284;-33
2023/10/17 06:55:38;;;;;;;7.82;4.57;;;7.00;99.90;;;;;;5018052;27;92254;-33
2023/10/17 06:58:09;;;;;;;4.95;4.43;;;6.90;99.90;;;;;;5037107;27;89862;-33
2023/10/17 07:00:43;;;;;;;7.82;4.90;;;6.90;99.90;;;;;;5019982;27;89080;-32
2023/10/17 07:03:13;;;;;;;5.50;4.65;;;7.00;99.90;;;;;;4998751;27;89639;-35
2023/10/17 07:05:39;;;;;;;7.78;6.35;;;7.00;99.90;;;;;;5024210;27;91047;-33
2023/10/17 07:08:13;;;;;;;6.28;4.57;;;7.10;99.90;;;;;;5021014;27;90309;-33
2023/10/17 07:10:39;;;;;;;6.40;4.93;;;7.10;99.90;;;;;;5015607;27;89737;-31
2023/10/17 07:13:48;;;;;;;6.55;5.63;;;7.20;99.90;;;;;;5029347;27;88908;-31
2023/10/17 07:16:16;;;;;;;5.78;5.18;;;7.20;99.90;;;;;;5026527;27;89949;-35
2023/10/17 07:18:47;;;;;;;10.23;5.87;;;7.20;99.90;;;;;;5035098;27;90205;-32
2023/10/17 07:23:48;;;;;;;7.63;6.75;;;7.30;99.90;;;;;;5034659;27;88095;-33
2023/10/17 07:26:17;;;;;;;8.40;6.50;;;7.30;99.90;;;;;;5035609;27;89836;-33
2023/10/17 07:28:52;;;;;;;8.35;7.43;;;7.40;99.90;;;;;;5005093;27;90753;-33
2023/10/17 07:31:20;;;;;;;7.40;6.75;;;7.40;99.90;;;;;;5036022;27;89055;-32
2023/10/17 07:33:47;;;;;;;6.45;5.78;;;7.50;99.90;;;;;;5034393;27;88928;-33
2023/10/17 07:36:15;;;;;;;20.02;7.35;;;7.60;99.90;;;;;;5034039;27;90757;-35
2023/10/17 07:38:43;;;;;;;;;;;7.70;99.90;;;;;;5036422;27;90671;-34
2023/10/17 07:41:17;;;;;;;8.38;7.05;;;7.90;99.90;;;;;;5004973;27;89661;-32
2023/10/17 07:44:09;;;;;;;9.82;8.20;;;7.90;99.90;;;;;;4853902;27;87938;-38
2023/10/17 07:46:35;;;;;;;10.85;6.50;;;8.00;99.90;;;;;;4912082;28;87971;-36
2023/10/17 07:49:04;;;;;;;7.15;6.45;;;8.10;99.90;;;;;;4606315;27;87977;-39
2023/10/17 07:51:31;;;;;;;11.48;6.60;;;8.10;99.90;;;;;;4940904;28;101401;-36
2023/10/17 07:53:57;;;;;;;11.00;7.63;;;8.10;99.90;;;;;;4970627;28;89969;-40
2023/10/17 07:56:26;;;;;;;9.10;6.45;;;8.20;99.90;;;;;;4964294;28;88836;-38
2023/10/17 07:59:04;;;;;;;14.88;6.95;;;8.30;99.90;;;;;;4971919;28;87567;-38
2023/10/17 08:01:43;;;;;;;10.27;5.25;;;8.30;99.90;;;;;;4973719;28;90237;-37
2023/10/17 08:06:41;;;;;;;7.00;6.18;;;8.40;99.90;;;;;;4974284;28;88290;-34
2023/10/17 08:09:18;;;;;;;7.90;5.68;;;8.50;99.90;;;;;;4974059;28;89068;-37
2023/10/17 08:11:44;;;;;;;16.50;6.68;;;8.60;99.90;;;;;;4969722;28;91055;-40
2023/10/17 08:14:10;;;;;;;10.95;7.25;;;8.70;99.90;;;;;;4955520;28;90557;-38
2023/10/17 08:16:40;;;;;;;5.68;4.72;;;8.80;99.90;;;;;;4954108;28;89099;-34
2023/10/17 08:19:22;;;;;;;8.40;5.95;;;8.80;99.90;;;;;;4954932;28;89614;-36
2023/10/17 08:27:17;;;;;;;8.63;6.03;;;8.90;99.90;;;;;;4955278;28;88523;-39
2023/10/17 08:29:45;;;;;;;6.03;4.43;;;8.90;99.90;;;;;;4955607;28;88314;-40
2023/10/17 08:34:59;;;;;;;8.77;6.05;;;9.00;99.90;;;;;;4956242;28;89405;-36
2023/10/17 08:37:30;;;;;;;8.25;5.07;;;9.00;99.90;;;;;;4968806;28;89618;-41
2023/10/17 08:39:57;;;;;;;8.30;5.15;;;9.10;99.90;;;;;;4955057;28;88141;-39
2023/10/17 08:44:56;;;;;;;10.38;5.32;;;9.20;99.90;;;;;;4958860;27;89548;-37
2023/10/17 08:47:29;;;;;;;3.90;3.50;;;9.20;99.90;;;;;;4968378;28;89824;-39
2023/10/17 08:49:55;;;;;;;6.55;4.50;;;9.30;99.90;;;;;;4974434;28;88038;-38
2023/10/17 08:52:28;;;;;;;7.47;4.95;;;9.40;99.90;;;;;;4974557;28;90512;-35
2023/10/17 08:54:56;;;;;;;5.82;5.28;;;9.50;99.90;;;;;;4962838;28;88922;-43
2023/10/17 08:57:23;;;;;;;5.90;5.13;;;9.50;99.90;;;;;;4942709;28;88446;-36
2023/10/17 09:05:06;;;;;;;12.95;5.97;;;9.80;99.90;;;;;;4959000;28;89459;-38
2023/10/17 09:07:32;;;;;;;7.63;3.58;;;9.80;99.90;;;;;;4949633;28;88032;-43
2023/10/17 09:10:04;;;;;;;4.03;2.60;;;9.80;99.90;;;;;;4955393;28;89887;-37
2023/10/17 09:12:42;;;;;;;3.92;3.63;;;9.80;99.90;;;;;;4941418;28;89968;-41
2023/10/17 09:15:39;;;;;;;6.28;4.35;;;9.90;99.90;;;;;;4943173;28;89552;-35
2023/10/17 09:18:08;;;;;;;3.38;3.08;;;10.00;99.90;;;;;;4960989;28;88600;-37
2023/10/17 09:20:39;;;;;;;6.07;3.67;;;10.00;99.90;;;;;;4947909;28;89523;-38
2023/10/17 09:23:22;;;;;;;3.72;3.05;;;10.10;99.90;;;;;;4959355;28;89138;-34
2023/10/17 09:26:07;;;;;;;9.50;3.78;;;10.10;99.90;;;;;;4959603;28;89442;-38
2023/10/17 09:28:33;;;;;;;3.50;3.20;;;10.20;99.90;;;;;;4960870;28;87686;-38
2023/10/17 09:31:03;;;;;;;4.75;3.83;;;10.20;99.90;;;;;;4944683;28;88805;-37
2023/10/17 09:33:32;;;;;;;4.25;2.92;;;10.30;99.90;;;;;;4959784;28;89763;-39
2023/10/17 09:35:59;;;;;;;5.20;2.90;;;10.30;99.90;;;;;;4959486;28;89961;-37
2023/10/17 09:38:27;;;;;;;2.88;2.67;;;10.50;99.90;;;;;;4959233;28;90150;-39
2023/10/17 09:40:57;;;;;;;2.70;1.90;;;10.60;99.90;;;;;;4959460;28;88654;-38
2023/10/17 09:43:22;;;;;;;3.83;2.53;;;10.70;99.90;;;;;;4958959;28;89880;-43
2023/10/17 09:45:52;;;;;;;2.55;1.27;;;10.60;99.90;;;;;;4942792;28;89687;-37
2023/10/17 09:48:27;;;;;;;2.25;1.52;;;10.70;99.90;;;;;;4940178;28;87577;-38
2023/10/17 09:50:58;;;;;;;1.20;1.10;;;10.80;99.90;;;;;;4940749;28;87971;-36
2023/10/17 09:53:30;;;;;;;2.13;1.55;;;10.80;99.90;;;;;;4939751;28;90670;-41
2023/10/17 09:56:00;;;;;;;3.03;1.42;;;10.80;99.90;;;;;;4940385;28;89311;-35
2023/10/17 09:58:37;;;;;;;2.47;1.75;;;10.70;99.90;;;;;;4940734;28;88732;-38
2023/10/17 10:01:24;;;;;;;1.43;1.33;;;10.70;99.90;;;;;;4940228;28;89558;-33
2023/10/17 10:03:56;;;;;;;1.48;1.38;;;10.80;99.90;;;;;;4941888;28;91599;-37
2023/10/17 10:06:30;;;;;;;3.13;1.83;;;10.80;99.90;;;;;;4941091;28;89309;-38
2023/10/17 10:09:17;;;;;;;1.30;1.20;;;10.80;99.90;;;;;;4941028;28;87600;-41
2023/10/17 10:11:50;;;;;;;3.72;1.52;;;10.90;99.90;;;;;;4953927;28;89555;-42
2023/10/17 10:14:16;;;;;;;2.08;1.50;;;10.90;99.90;;;;;;4951175;28;89840;-38
2023/10/17 10:16:54;;;;;;;6.18;1.23;;;10.90;99.90;;;;;;4939530;28;89668;-40
2023/10/17 10:19:24;;;;;;;2.60;1.10;;;10.90;99.90;;;;;;4949333;28;87851;-38
2023/10/17 10:21:59;;;;;;;1.98;1.30;;;11.00;99.90;;;;;;4943067;28;89289;-37
2023/10/17 10:24:36;;;;;;;2.33;1.85;;;11.00;99.90;;;;;;4950887;28;90458;-41
2023/10/17 10:27:15;;;;;;;2.15;1.98;;;11.20;99.90;;;;;;4940156;28;88635;-36
2023/10/17 10:29:41;;;;;;;1.63;0.98;;;11.20;99.90;;;;;;4950335;28;91083;-36
2023/10/17 10:32:25;;;;;;;5.47;1.77;;;11.20;99.90;;;;;;4959403;28;88614;-41
2023/10/17 10:34:52;;;;;;;6.05;1.77;;;11.10;99.90;;;;;;4957969;28;89889;-39
2023/10/17 10:37:21;;;;;;;4.15;1.35;;;11.20;99.90;;;;;;4958494;28;90102;-36
2023/10/17 10:43:04;;;;;;;1.33;0.85;;;11.20;99.90;;;;;;4958902;28;88869;-38
2023/10/17 10:45:55;;;;;;;1.35;1.23;;;11.30;99.90;;;;;;4957752;28;89080;-36
2023/10/17 10:48:21;;;;;;;4.15;1.35;;;11.30;99.90;;;;;;4958646;28;89434;-42
2023/10/17 10:50:57;;;;;;;1.52;1.42;;;11.30;99.90;;;;;;4959596;28;88136;-37
2023/10/17 10:53:36;;;;;;;2.95;1.02;;;11.30;99.90;;;;;;4950771;28;88149;-35
2023/10/17 10:56:08;;;;;;;;;;;11.40;99.90;;;;;;4953798;28;90777;-35
2023/10/17 10:58:41;;;;;;;1.45;0.80;;;11.40;99.90;;;;;;4959547;28;90032;-39
2023/10/17 11:01:07;;;;;;;1.98;1.20;;;11.40;99.90;;;;;;4958539;28;88452;-36
2023/10/17 11:03:42;;;;;;;3.33;1.33;;;11.40;99.90;;;;;;4953669;28;88975;-40
2023/10/17 11:06:08;;;;;;;6.93;2.42;;;11.40;99.90;;;;;;4958705;28;90171;-38
2023/10/17 11:08:35;;;;;;;1.88;1.77;;;11.40;99.90;;;;;;4957945;28;90539;-38
2023/10/17 11:11:03;;;;;;;3.90;1.73;;;11.50;99.90;;;;;;4959139;28;87468;-40
2023/10/17 11:13:37;;;;;;;4.97;1.70;;;11.50;99.90;;;;;;4958051;28;88340;-35
2023/10/17 11:16:06;;;;;;;2.28;1.65;;;11.50;99.90;;;;;;4958609;28;90544;-39
2023/10/17 11:18:40;;;;;;;3.15;1.48;;;11.50;99.90;;;;;;4958140;28;88438;-40
2023/10/17 11:21:08;;;;;;;2.33;1.17;;;11.50;99.90;;;;;;4957761;28;90690;-40
2023/10/17 11:23:39;;;;;;;2.83;1.30;;;11.50;99.90;;;;;;4957594;28;88764;-35
2023/10/17 11:26:12;;;;;;;1.88;1.27;;;11.50;99.90;;;;;;4958997;28;90386;-42
2023/10/17 11:28:51;;;;;;;1.55;1.45;;;11.50;99.90;;;;;;4951411;28;90686;-34
2023/10/17 11:31:24;;;;;;;1.48;1.20;;;11.40;99.90;;;;;;4939298;28;88181;-38
2023/10/17 11:33:58;;;;;;;7.13;3.10;;;11.40;99.90;;;;;;4946118;28;88076;-37
2023/10/17 11:36:25;;;;;;;5.10;2.40;;;11.60;99.90;;;;;;4944399;28;91304;-38
2023/10/17 11:39:04;;;;;;;2.70;1.30;;;11.60;99.90;;;;;;4947790;28;88955;-37
2023/10/17 11:41:31;;;;;;;1.83;1.58;;;11.60;99.90;;;;;;4952527;28;89616;-36
2023/10/17 11:44:04;;;;;;;2.97;1.70;;;11.70;99.90;;;;;;4951650;28;89397;-38
2023/10/17 11:46:31;;;;;;;3.72;1.85;;;11.70;99.90;;;;;;4949313;28;89887;-39
2023/10/17 11:49:28;;;;;;;38.10;2.95;;;11.70;99.90;;;;;;4938120;28;90701;-41
2023/10/17 11:52:01;;;;;;;1.43;1.27;;;11.80;99.90;;;;;;4938825;28;88169;-42
2023/10/17 11:54:28;;;;;;;3.75;2.03;;;11.80;99.90;;;;;;4945928;28;88857;-41
2023/10/17 11:56:54;;;;;;;3.22;2.40;;;11.80;99.90;;;;;;4956936;28;88967;-36
2023/10/17 11:59:20;;;;;;;5.65;1.55;;;11.70;99.90;;;;;;4956527;28;90406;-37
2023/10/17 12:01:47;;;;;;;2.88;2.00;;;11.70;99.90;;;;;;4956479;28;89086;-41
2023/10/17 12:04:16;;;;;;;1.30;1.20;;;11.70;99.90;;;;;;4957671;28;89442;-35
2023/10/17 12:06:51;;;;;;;2.28;1.00;;;11.80;99.90;;;;;;4955827;28;90441;-37
2023/10/17 12:09:26;;;;;;;1.92;1.45;;;11.80;99.90;;;;;;4956779;28;89773;-42
2023/10/17 12:11:54;;;;;;;3.08;2.30;;;11.80;99.90;;;;;;4955281;28;88793;-41
2023/10/17 12:14:21;;;;;;;2.00;1.52;;;11.80;99.90;;;;;;4945546;28;87740;-41
2023/10/17 12:16:48;;;;;;;5.05;1.95;;;11.80;99.90;;;;;;4941119;28;89738;-39
2023/10/17 12:19:16;;;;;;;1.83;1.23;;;11.80;99.90;;;;;;4946570;28;89285;-40
2023/10/17 12:21:48;;;;;;;1.80;1.27;;;11.80;99.90;;;;;;4956121;28;88661;-39
2023/10/17 12:24:24;;;;;;;1.27;1.17;;;11.80;99.90;;;;;;4946710;28;87938;-41
2023/10/17 12:26:50;;;;;;;5.07;1.35;;;12.00;99.90;;;;;;4951193;28;89748;-38
2023/10/17 12:29:19;;;;;;;4.85;1.52;;;11.90;99.90;;;;;;4950447;28;89651;-36
2023/10/17 12:31:46;;;;;;;1.48;1.33;;;12.00;99.90;;;;;;4947341;28;88953;-39
2023/10/17 12:34:15;;;;;;;2.80;1.83;;;12.00;99.90;;;;;;4953103;28;87601;-34
2023/10/17 12:36:41;;;;;;;1.42;1.30;;;11.90;99.90;;;;;;4959422;28;89967;-40
2023/10/17 12:39:07;;;;;;;2.05;1.20;;;12.00;99.90;;;;;;4958696;28;90567;-40
2023/10/17 12:41:34;;;;;;;2.03;1.42;;;12.00;99.90;;;;;;4948019;28;89595;-41
2023/10/17 12:44:00;;;;;;;2.35;2.15;;;11.90;99.90;;;;;;4953566;28;88857;-41
2023/10/17 12:46:26;;;;;;;7.72;2.33;;;12.00;99.90;;;;;;4960172;28;90616;-37
2023/10/17 12:48:52;;;;;;;2.03;1.90;;;11.90;99.90;;;;;;4958816;28;90134;-38
2023/10/17 12:51:20;;;;;;;1.40;1.17;;;12.00;99.90;;;;;;4960088;28;89835;-41
2023/10/17 12:53:46;;;;;;;1.98;1.70;;;12.00;99.90;;;;;;4959242;28;90755;-37
2023/10/17 12:56:13;;;;;;;2.90;1.58;;;12.00;99.90;;;;;;4959608;28;88064;-42
2023/10/17 12:58:39;;;;;;;2.83;1.58;;;12.00;99.90;;;;;;4945514;28;90034;-34
2023/10/17 13:01:05;;;;;;;2.25;1.33;;;12.10;99.90;;;;;;4942911;28;89145;-39
2023/10/17 13:03:36;;;;;;;1.55;1.40;;;12.00;99.90;;;;;;4951634;28;88925;-37
2023/10/17 13:06:02;;;;;;;6.85;2.33;;;12.00;99.90;;;;;;4941946;28;90098;-37
2023/10/17 13:08:28;;;;;;;1.38;1.13;;;12.00;99.90;;;;;;4954451;28;90145;-40
2023/10/17 13:10:57;;;;;;;3.03;1.83;;;11.90;99.90;;;;;;4944157;28;89152;-37
2023/10/17 13:13:23;;;;;;;2.67;1.52;;;11.90;99.90;;;;;;4943928;28;89707;-40
2023/10/17 13:15:49;;;;;;;3.38;2.15;;;11.90;99.90;;;;;;4944404;28;89519;-39
2023/10/17 13:18:16;;;;;;;1.63;1.15;;;12.00;99.90;;;;;;4786333;28;90430;-41
2023/10/17 13:20:54;;;;;;;1.58;1.30;;;11.90;99.90;;;;;;4760380;28;94368;-37
2023/10/17 13:23:20;;;;;;;2.83;1.42;;;11.90;99.90;;;;;;4954193;28;90584;-39
2023/10/17 13:25:46;;;;;;;3.00;1.77;;;11.90;99.90;;;;;;4959065;28;90768;-41
2023/10/17 13:28:12;;;;;;;1.40;1.30;;;11.90;99.90;;;;;;4957973;28;89376;-40
2023/10/17 13:30:38;;;;;;;2.53;1.50;;;11.80;99.90;;;;;;4959329;28;89534;-43
2023/10/17 13:33:04;;;;;;;3.60;1.33;;;11.70;99.90;;;;;;4958916;28;87719;-38
2023/10/17 13:35:30;;;;;;;3.35;2.15;;;11.80;99.90;;;;;;4959800;28;91268;-36
2023/10/17 13:37:58;;;;;;;3.00;1.65;;;11.80;99.90;;;;;;4959429;28;89982;-36
2023/10/17 13:40:25;;;;;;;2.30;1.55;;;11.80;99.90;;;;;;4959325;28;88856;-38
2023/10/17 13:42:55;;;;;;;1.70;1.48;;;11.70;99.90;;;;;;4957954;28;88748;-38
2023/10/17 13:45:22;;;;;;;9.63;2.55;;;11.70;99.90;;;;;;4959830;28;90810;-38
2023/10/17 13:47:49;;;;;;;1.55;1.30;;;11.80;99.90;;;;;;4958623;28;90382;-41
2023/10/17 13:50:19;;;;;;;1.50;1.40;;;11.90;99.90;;;;;;4956910;28;89754;-43
2023/10/17 13:52:54;;;;;;;2.25;1.50;;;11.90;99.90;;;;;;4955637;28;89844;-36
2023/10/17 13:55:26;;;;;;;4.55;1.75;;;11.90;99.90;;;;;;4958833;28;88643;-38
2023/10/17 13:57:55;;;;;;;2.17;1.70;;;11.90;99.90;;;;;;4958072;28;89409;-37
2023/10/17 14:00:25;;;;;;;1.98;1.52;;;12.00;99.90;;;;;;4959144;28;89350;-39
2023/10/17 14:02:51;;;;;;;2.33;1.92;;;11.90;99.90;;;;;;4950384;28;89209;-38
2023/10/17 14:05:19;;;;;;;5.18;1.85;;;11.80;99.90;;;;;;4958447;28;90110;-42
2023/10/17 14:07:48;;;;;;;;;;;11.80;99.90;;;;;;4959675;28;89711;-38
2023/10/17 14:10:14;;;;;;;6.38;1.50;;;11.80;99.90;;;;;;4959464;28;89439;-38
2023/10/17 14:12:41;;;;;;;1.70;1.52;;;11.80;99.90;;;;;;4958002;28;89642;-40
2023/10/17 14:15:08;;;;;;;4.47;1.52;;;11.80;99.90;;;;;;4958581;28;90217;-37
2023/10/17 14:17:35;;;;;;;4.18;1.90;;;11.80;99.90;;;;;;4959008;28;89906;-39
2023/10/17 14:20:14;;;;;;;1.92;1.67;;;11.90;99.90;;;;;;4957636;28;88494;-34
2023/10/17 14:28:11;;;;;;;8.02;2.78;;;11.90;99.90;;;;;;4957002;28;91318;-37
2023/10/17 14:30:39;;;;;;;3.38;1.60;;;11.90;99.90;;;;;;4958268;28;89803;-38
2023/10/17 14:33:08;;;;;;;1.90;1.23;;;11.90;99.90;;;;;;4958180;28;89723;-41
2023/10/17 14:35:37;;;;;;;1.65;1.55;;;11.80;99.90;;;;;;4957958;28;90218;-37
2023/10/17 14:38:03;;;;;;;7.63;1.00;;;11.80;99.90;;;;;;4957923;28;90137;-42
2023/10/17 14:40:32;;;;;;;2.03;1.20;;;11.80;99.90;;;;;;4958289;28;88969;-36
2023/10/17 14:42:58;;;;;;;2.85;1.55;;;11.80;99.90;;;;;;4957523;28;88165;-34
2023/10/17 14:45:25;;;;;;;1.85;1.63;;;11.80;99.90;;;;;;4957339;28;89417;-41
2023/10/17 14:47:55;;;;;;;3.75;2.35;;;11.80;99.90;;;;;;4957592;28;89179;-37
2023/10/17 14:50:20;;;;;;;1.85;1.25;;;11.80;99.90;;;;;;4957193;28;89994;-40
2023/10/17 14:52:46;;;;;;;2.17;1.95;;;11.70;99.90;;;;;;4957148;28;87695;-41
2023/10/17 14:55:15;;;;;;;3.50;1.63;;;11.70;99.90;;;;;;4957004;28;88650;-38
2023/10/17 14:57:45;;;;;;;1.50;1.25;;;11.70;99.90;;;;;;4957688;28;89620;-36
2023/10/17 15:00:13;;;;;;;2.58;1.67;;;11.70;99.90;;;;;;4957053;28;89507;-44
2023/10/17 15:02:45;;;;;;;2.38;1.83;;;11.60;99.90;;;;;;4956907;28;88290;-41
2023/10/17 15:05:14;;;;;;;1.92;1.73;;;11.60;99.90;;;;;;4957015;28;89878;-37
2023/10/17 15:07:40;;;;;;;4.93;1.98;;;11.60;99.90;;;;;;4958049;28;88653;-36
2023/10/17 15:10:12;;;;;;;3.72;2.63;;;11.60;99.90;;;;;;4956923;28;89154;-38
2023/10/17 15:12:42;;;;;;;1.85;1.40;;;11.60;99.90;;;;;;4958011;28;88029;-37
2023/10/17 15:15:10;;;;;;;3.03;1.67;;;11.50;99.90;;;;;;4957598;28;90092;-40
2023/10/17 15:17:43;;;;;;;2.90;1.33;;;11.50;99.90;;;;;;4957652;28;89459;-37
2023/10/17 15:20:13;;;;;;;4.47;1.58;;;11.50;99.90;;;;;;4956006;28;89814;-40
2023/10/17 15:22:40;;;;;;;1.85;1.35;;;11.50;99.90;;;;;;4957714;28;88138;-36